Rodney, Ohio
Current Conditions -  °F | °C
As of 11:15 AM on Monday 24 Nov 2014 (Local Time) from K3I2 Reporting Station
Light Rain Light Rain  
Wind Chill: 63°   Ceiling: 6500
Heat Index: 63°   Visibility: 7mi
Dew Point: 52°   Wind: 16mph
Humidity: 68%   Direction: 240°WSW
Pressure: 29.49"   Gusts: 26mph
Location:  38.7997°N, 82.2553°W
Report Text: K3I2 241615Z AUTO 24014G23KT 7SM -RA SCT023 SCT041 BKN065 17/11 A2949 RMK AO2
Loading
Personal Weather Stations






























Interactive Weather Map New forecast layout! Learn more

10-Day Weather Forecast

Advertisements
Track Severe Weather on mobile